Time;durP1;ratioP1;P1;durP2;ratioP2;P2;SDS_P1;SDS_P2;PMS_P1;PMS_P2;Temp;Humidity;BMP_temperature;BMP_pressure;BME280_temperature;BME280_humidity;BME280_pressure;Samples;Min_cycle;Max_cycle;Signal;HPM_P1;HPM_P2
2021/04/17 00:01:48;;;;;;;4.33;2.10;;;;;;;5.67;65.70;103126.91;6072609;29;20194;-72
2021/04/17 00:04:51;;;;;;;6.83;2.00;;;;;;;5.69;66.05;103135.75;6071953;29;20222;-72
2021/04/17 00:07:57;;;;;;;1.93;1.70;;;;;;;5.71;65.21;103133.78;6071765;29;20212;-72
2021/04/17 00:11:00;;;;;;;2.67;2.03;;;;;;;5.73;65.46;103120.13;6071794;29;20192;-72
2021/04/17 00:14:06;;;;;;;5.17;1.90;;;;;;;5.61;66.20;103119.31;6072565;29;20222;-72
2021/04/17 00:17:09;;;;;;;2.13;1.67;;;;;;;5.60;66.32;103125.69;6071880;29;20194;-71
2021/04/17 00:20:14;;;;;;;5.00;2.37;;;;;;;5.48;67.42;103126.72;6071289;29;20339;-72
2021/04/17 00:23:18;;;;;;;5.97;2.00;;;;;;;5.55;66.87;103133.34;6072105;29;20228;-71
2021/04/17 00:26:21;;;;;;;4.73;1.93;;;;;;;5.55;66.68;103127.94;6071026;29;20193;-71
2021/04/17 00:29:25;;;;;;;2.87;1.70;;;;;;;5.45;67.68;103121.56;6072321;29;20190;-71
2021/04/17 00:32:28;;;;;;;4.03;2.13;;;;;;;5.55;66.86;103127.94;6070932;29;20480;-72
2021/04/17 00:35:32;;;;;;;5.10;2.10;;;;;;;5.40;67.55;103123.81;6071885;29;20223;-71
2021/04/17 00:38:36;;;;;;;2.47;1.80;;;;;;;5.45;67.36;103121.56;6072198;29;20193;-72
2021/04/17 00:41:39;;;;;;;2.43;2.07;;;;;;;5.40;67.63;103118.38;6071767;29;20245;-71
2021/04/17 00:44:42;;;;;;;4.07;1.90;;;;;;;5.11;67.57;103096.44;6071002;29;20224;-72
2021/04/17 00:47:46;;;;;;;1.77;1.70;;;;;;;5.43;67.29;103107.31;6070619;29;20507;-73
2021/04/17 00:50:49;;;;;;;1.80;1.70;;;;;;;5.35;68.01;103104.38;6071887;29;20225;-71
2021/04/17 00:53:53;;;;;;;2.00;1.63;;;;;;;5.40;67.90;103108.44;6070422;29;20488;-71
2021/04/17 00:56:57;;;;;;;9.33;2.07;;;;;;;5.22;67.91;103109.09;6071920;29;20235;-72
2021/04/17 01:00:01;;;;;;;1.90;1.80;;;;;;;5.20;67.66;103084.88;6071724;29;20193;-72
2021/04/17 01:03:12;;;;;;;2.83;1.77;;;;;;;5.04;69.39;103096.09;6071715;29;20194;-71
2021/04/17 01:06:20;;;;;;;3.77;1.83;;;;;;;5.26;67.88;103094.34;6070783;29;20190;-71
2021/04/17 01:09:31;;;;;;;1.70;1.60;;;;;;;5.23;68.13;103100.00;6071134;29;20193;-72
2021/04/17 01:12:35;;;;;;;3.73;1.60;;;;;;;5.16;68.35;103096.09;6070264;29;20194;-71
2021/04/17 01:15:40;;;;;;;16.43;8.53;;;;;;;5.25;67.95;103092.59;6070030;29;20489;-71
2021/04/17 01:18:44;;;;;;;2.27;2.17;;;;;;;5.30;68.45;103101.19;6071206;29;20260;-72
2021/04/17 01:21:47;;;;;;;2.57;1.60;;;;;;;5.29;67.97;103094.09;6070085;29;20193;-72
2021/04/17 01:25:03;;;;;;;3.00;2.00;;;;;;;5.05;68.99;103108.66;6070881;29;20296;-72
2021/04/17 01:28:09;;;;;;;1.97;1.73;;;;;;;5.34;68.07;103102.69;6070173;29;20390;-72
2021/04/17 01:31:15;;;;;;;4.10;1.50;;;;;;;5.18;68.30;103096.81;6074682;29;20190;-70
2021/04/17 01:34:19;;;;;;;3.33;1.93;;;;;;;5.37;68.19;103100.56;6075656;29;20197;-71
2021/04/17 01:37:39;;;;;;;3.07;1.90;;;;;;;5.01;69.46;103090.94;6076093;29;20268;-72
2021/04/17 01:40:45;;;;;;;5.90;2.10;;;;;;;4.93;70.08;103093.41;6075833;29;20218;-72
2021/04/17 01:43:53;;;;;;;3.47;1.80;;;;;;;4.38;70.14;102998.88;6074675;29;20460;-72
2021/04/17 01:47:10;;;;;;;4.90;1.90;;;;;;;4.97;69.79;103094.03;6076042;29;20217;-72
2021/04/17 01:50:15;;;;;;;1.77;1.67;;;;;;;4.95;70.23;103096.88;6075799;29;20200;-72
2021/04/17 01:53:24;;;;;;;3.37;1.93;;;;;;;4.99;70.28;103092.91;6074544;29;20193;-72
2021/04/17 01:56:29;;;;;;;1.70;1.60;;;;;;;4.91;70.65;103089.97;6057987;29;20209;-71
2021/04/17 01:59:35;;;;;;;4.80;1.73;;;;;;;4.88;70.82;103090.22;6074941;29;20241;-70
2021/04/17 02:02:40;;;;;;;3.77;2.03;;;;;;;4.66;70.81;103075.88;6075245;29;20200;-71
2021/04/17 02:05:48;;;;;;;3.73;2.00;;;;;;;5.06;69.48;103094.13;6074089;29;20450;-71
2021/04/17 02:08:51;;;;;;;3.73;1.60;;;;;;;4.99;70.06;103092.91;6075065;29;20200;-72
2021/04/17 02:11:54;;;;;;;6.67;2.00;;;;;;;4.80;70.81;103092.69;6075298;29;20261;-71
2021/04/17 02:14:59;;;;;;;2.20;2.00;;;;;;;4.73;70.62;103091.47;6074319;29;20202;-72
2021/04/17 02:18:12;;;;;;;2.60;1.70;;;;;;;4.85;70.61;103095.88;6075173;29;20192;-70
2021/04/17 02:21:21;;;;;;;4.80;2.17;;;;;;;4.65;71.29;103093.94;6074835;29;20194;-71
2021/04/17 02:24:27;;;;;;;3.80;1.90;;;;;;;4.83;70.78;103094.28;6074857;29;20229;-71
2021/04/17 02:27:30;;;;;;;1.80;1.70;;;;;;;4.91;69.86;103089.97;6073989;29;20192;-71
2021/04/17 02:30:37;;;;;;;3.60;1.80;;;;;;;4.79;69.88;103045.00;6073910;29;20241;-71
2021/04/17 02:33:40;;;;;;;5.40;1.90;;;;;;;4.92;70.52;103089.00;6074689;29;20193;-72
2021/04/17 02:36:43;;;;;;;3.53;2.40;;;;;;;4.80;70.89;103084.56;6073526;29;20539;-71
2021/04/17 02:39:47;;;;;;;2.27;2.07;;;;;;;4.91;69.55;103089.97;6073220;29;20498;-72
2021/04/17 02:42:50;;;;;;;2.10;1.70;;;;;;;4.82;70.91;103087.19;6073758;29;20251;-71
2021/04/17 02:45:54;;;;;;;4.90;2.10;;;;;;;4.79;70.73;103080.16;6074565;29;20221;-72
2021/04/17 02:48:57;;;;;;;4.03;2.00;;;;;;;4.85;70.72;103081.53;6056894;29;20395;-72
2021/04/17 02:52:00;;;;;;;3.97;1.97;;;;;;;4.80;70.38;103081.03;6073226;29;20568;-71
2021/04/17 02:55:05;;;;;;;2.67;1.67;;;;;;;4.79;70.51;103077.47;6073947;29;20196;-71
2021/04/17 02:58:09;;;;;;;2.30;1.60;;;;;;;4.77;70.24;103068.63;6073535;29;20481;-71
2021/04/17 03:01:13;;;;;;;2.30;1.80;;;;;;;4.69;70.55;103065.69;6073027;29;20276;-71
2021/04/17 03:04:17;;;;;;;3.50;1.77;;;;;;;4.55;71.01;103082.16;6072764;29;20443;-72
2021/04/17 03:07:20;;;;;;;1.90;1.77;;;;;;;4.69;70.93;103068.38;6056571;29;20363;-71
2021/04/17 03:10:23;;;;;;;2.00;1.80;;;;;;;4.40;71.69;103067.16;6074095;29;20219;-72
2021/04/17 03:13:26;;;;;;;1.83;1.73;;;;;;;4.67;70.64;103075.78;6073962;29;20192;-72
2021/04/17 03:16:30;;;;;;;1.77;1.40;;;;;;;4.81;70.55;103078.19;6074119;29;20204;-72
2021/04/17 03:19:33;;;;;;;2.70;1.97;;;;;;;4.55;70.60;103076.75;6072746;29;20257;-72
2021/04/17 03:22:38;;;;;;;3.30;1.87;;;;;;;4.55;71.47;103070.47;6073589;29;20193;-72
2021/04/17 03:25:41;;;;;;;2.63;2.00;;;;;;;4.50;71.28;103073.56;6072358;29;20229;-71
2021/04/17 03:28:44;;;;;;;3.90;1.73;;;;;;;4.44;70.93;103068.66;6073215;29;20201;-70
2021/04/17 03:31:48;;;;;;;3.60;1.70;;;;;;;4.31;72.05;103078.72;6055929;29;20208;-71
2021/04/17 03:34:52;;;;;;;1.80;1.70;;;;;;;4.41;71.70;103085.13;6072223;29;20488;-71
2021/04/17 03:37:55;;;;;;;2.17;1.97;;;;;;;4.39;72.07;103076.28;6072940;29;20193;-71
2021/04/17 03:40:58;;;;;;;4.40;1.80;;;;;;;4.41;71.11;103074.31;6073078;29;20215;-72
2021/04/17 03:44:01;;;;;;;1.80;1.70;;;;;;;4.40;71.45;103072.56;6072238;29;20277;-71
2021/04/17 03:47:05;;;;;;;2.17;1.70;;;;;;;4.50;71.14;103078.09;6072073;29;20535;-71
2021/04/17 03:50:13;;;;;;;3.77;1.63;;;;;;;4.43;71.25;103072.34;6072480;29;20193;-72
2021/04/17 03:53:17;;;;;;;2.07;1.87;;;;;;;4.38;71.83;103082.66;6072290;29;20201;-72
2021/04/17 03:56:20;;;;;;;4.07;1.60;;;;;;;4.41;71.09;103080.59;6072542;29;20195;-72
2021/04/17 03:59:23;;;;;;;1.70;1.60;;;;;;;4.52;70.79;103079.69;6072720;29;20192;-72
2021/04/17 04:02:27;;;;;;;2.47;1.67;;;;;;;4.39;71.29;103070.88;6071731;29;20360;-71
2021/04/17 04:05:45;;;;;;;1.50;1.50;;;;;;;4.36;71.16;103071.97;6071569;29;20545;-72
2021/04/17 04:08:48;;;;;;;1.87;1.77;;;;;;;4.37;71.19;103083.63;6071608;29;20280;-71
2021/04/17 04:11:51;;;;;;;1.60;1.53;;;;;;;4.39;70.84;103082.53;6072757;29;20268;-72
2021/04/17 04:14:54;;;;;;;2.70;1.80;;;;;;;4.40;71.91;103084.25;6072487;29;20203;-72
2021/04/17 04:17:58;;;;;;;2.63;1.90;;;;;;;4.45;71.53;103086.56;6071172;29;20422;-72
2021/04/17 04:21:01;;;;;;;2.20;1.70;;;;;;;4.45;70.72;103086.56;6071282;29;20248;-71
2021/04/17 04:24:05;;;;;;;1.50;1.50;;;;;;;4.52;70.78;103085.09;6071123;29;20261;-72
2021/04/17 04:27:09;;;;;;;2.10;1.83;;;;;;;4.50;71.01;103084.38;6071130;29;20499;-71
2021/04/17 04:30:13;;;;;;;4.93;1.73;;;;;;;4.31;70.10;103067.91;6071871;29;20192;-71
2021/04/17 04:33:18;;;;;;;1.70;1.47;;;;;;;4.39;70.93;103098.75;6072376;29;20191;-71
2021/04/17 04:36:21;;;;;;;1.70;1.60;;;;;;;4.54;70.30;103095.81;6072199;29;20201;-71
2021/04/17 04:39:24;;;;;;;2.60;1.73;;;;;;;4.47;71.04;103098.13;6071994;29;20192;-72
2021/04/17 04:42:27;;;;;;;3.33;1.60;;;;;;;4.56;70.10;103100.09;6071062;29;20244;-72
2021/04/17 04:45:31;;;;;;;2.67;1.63;;;;;;;4.58;70.82;103092.72;6072131;29;20220;-72
2021/04/17 04:48:35;;;;;;;1.47;1.37;;;;;;;4.55;70.41;103102.91;6071611;29;20193;-72
2021/04/17 04:51:39;;;;;;;2.87;1.50;;;;;;;4.52;70.27;103104.03;6071599;29;20200;-71
2021/04/17 04:54:42;;;;;;;4.37;1.60;;;;;;;4.43;70.22;103115.59;6070503;29;20469;-71
2021/04/17 04:57:46;;;;;;;5.47;1.70;;;;;;;4.53;70.12;103104.88;6071452;29;20223;-71
2021/04/17 05:00:49;;;;;;;3.03;1.53;;;;;;;4.64;69.07;103103.06;6070344;29;20482;-71
2021/04/17 05:03:53;;;;;;;2.33;1.70;;;;;;;4.46;69.72;103109.94;6071165;29;20191;-71
2021/04/17 05:06:56;;;;;;;2.57;1.80;;;;;;;4.66;69.21;103105.63;6071704;29;20223;-71
2021/04/17 05:10:00;;;;;;;3.50;1.53;;;;;;;4.54;69.63;103107.50;6071491;29;20198;-71
2021/04/17 05:13:03;;;;;;;2.63;2.10;;;;;;;4.55;69.56;103114.59;6071272;29;20203;-72
2021/04/17 05:16:07;;;;;;;3.00;1.80;;;;;;;4.82;68.30;103100.69;6070187;29;20482;-72
2021/04/17 05:19:11;;;;;;;4.87;1.83;;;;;;;4.93;67.53;103109.66;6071420;29;20192;-72
2021/04/17 05:22:15;;;;;;;1.60;1.30;;;;;;;4.72;67.77;103086.22;6070237;29;20202;-71
2021/04/17 05:25:19;;;;;;;4.37;1.50;;;;;;;5.08;66.97;103121.91;6070506;29;20219;-71
2021/04/17 05:28:22;;;;;;;2.13;1.80;;;;;;;5.05;67.56;103119.50;6069866;29;20492;-71
2021/04/17 05:31:25;;;;;;;2.87;1.60;;;;;;;5.01;67.81;103122.53;6071331;29;20192;-71
2021/04/17 05:34:29;;;;;;;1.73;1.63;;;;;;;5.16;66.33;103128.56;6069904;29;20192;-72
2021/04/17 05:37:32;;;;;;;1.77;1.60;;;;;;;5.25;66.29;103119.66;6070019;29;20197;-71
2021/04/17 05:40:36;;;;;;;5.83;1.60;;;;;;;5.26;65.72;103126.81;6070882;29;20209;-71
2021/04/17 05:43:40;;;;;;;2.97;1.70;;;;;;;5.38;65.22;103120.38;6069887;29;20243;-71
2021/04/17 05:46:44;;;;;;;3.17;1.57;;;;;;;5.30;65.67;103117.44;6071077;29;20292;-71
2021/04/17 05:49:48;;;;;;;1.53;1.43;;;;;;;5.43;64.52;103124.41;6070270;29;20241;-71
2021/04/17 05:52:51;;;;;;;3.23;1.87;;;;;;;5.46;64.31;103123.31;6071060;29;20193;-71
2021/04/17 05:55:54;;;;;;;2.37;1.50;;;;;;;5.58;64.05;103122.25;6070040;29;20245;-72
2021/04/17 05:58:57;;;;;;;4.13;1.73;;;;;;;5.67;63.31;103132.34;6071015;29;20197;-71
2021/04/17 06:02:00;;;;;;;1.40;1.40;;;;;;;5.75;63.15;103119.00;6069851;29;20454;-72
2021/04/17 06:05:05;;;;;;;1.40;1.40;;;;;;;5.79;62.45;103114.16;6070842;29;20227;-72
2021/04/17 06:08:09;;;;;;;1.80;1.70;;;;;;;5.78;61.90;103115.19;6069718;29;20497;-71
2021/04/17 06:11:12;;;;;;;1.73;1.47;;;;;;;5.83;61.27;103111.06;6071175;29;20205;-72
2021/04/17 06:14:16;;;;;;;1.53;1.43;;;;;;;5.94;61.05;103113.75;6070308;29;20253;-72
2021/04/17 06:17:19;;;;;;;2.87;1.40;;;;;;;6.06;60.60;103107.25;6074873;29;20229;-71
2021/04/17 06:20:24;;;;;;;2.27;1.20;;;;;;;6.21;61.19;103105.91;6073744;29;20234;-71
2021/04/17 06:23:30;;;;;;;2.00;1.70;;;;;;;6.35;59.08;103107.44;6075003;29;20215;-72
2021/04/17 06:26:34;;;;;;;4.30;1.60;;;;;;;6.54;58.98;103101.25;6074277;29;20249;-72
2021/04/17 06:29:37;;;;;;;6.83;1.50;;;;;;;6.68;58.62;103109.00;6075031;29;20233;-71
2021/04/17 06:32:40;;;;;;;1.50;1.50;;;;;;;6.84;56.90;103106.66;6074547;29;20194;-71
2021/04/17 06:35:45;;;;;;;1.30;1.30;;;;;;;6.83;55.25;103080.53;6074636;29;20068;-72
2021/04/17 06:38:48;;;;;;;;;;;;;;;7.09;55.02;103098.00;6074527;29;20099;-72
2021/04/17 06:41:52;;;;;;;;;;;;;;;7.20;54.57;103100.59;6074366;29;20258;-72
2021/04/17 06:44:56;;;;;;;2.73;1.43;;;;;;;7.40;53.88;103102.34;6073815;29;19924;-71
2021/04/17 06:47:59;;;;;;;;;;;;;;;7.65;53.96;103100.94;6075223;29;20108;-72
2021/04/17 06:51:05;;;;;;;1.20;1.20;;;;;;;7.88;52.63;103087.91;6074353;29;19983;-71
2021/04/17 06:54:11;;;;;;;1.30;1.20;;;;;;;8.13;52.04;103095.44;6073590;29;20167;-72
2021/04/17 06:57:15;;;;;;;1.10;1.10;;;;;;;8.38;48.91;103100.25;6073807;29;20392;-71
2021/04/17 07:00:19;;;;;;;2.33;1.30;;;;;;;8.36;48.36;103104.13;6074046;29;20215;-71
2021/04/17 07:03:23;;;;;;;1.27;1.17;;;;;;;8.47;47.22;103093.94;6074179;29;20231;-72
2021/04/17 07:06:27;;;;;;;1.27;1.20;;;;;;;8.54;47.73;103105.94;6073064;29;20546;-73
2021/04/17 07:09:31;;;;;;;1.65;1.13;;;;;;;8.57;48.28;103088.44;6072883;29;20539;-72
2021/04/17 07:12:35;;;;;;;1.13;1.13;;;;;;;8.59;47.26;103091.88;6073882;29;20190;-72
2021/04/17 07:15:40;;;;;;;1.10;1.10;;;;;;;8.58;47.29;103085.56;6072824;29;20458;-71
2021/04/17 07:18:43;;;;;;;1.00;1.00;;;;;;;8.66;46.79;103099.28;6072850;29;20194;-72
2021/04/17 07:21:47;;;;;;;1.30;1.30;;;;;;;8.60;47.06;103113.47;6073471;29;20228;-72
2021/04/17 07:24:53;;;;;;;1.10;1.10;;;;;;;8.60;46.99;103110.75;6073362;29;20258;-75
2021/04/17 07:27:56;;;;;;;1.23;1.13;;;;;;;8.64;47.71;103112.19;6071902;29;20214;-71
2021/04/17 07:31:00;;;;;;;1.25;1.20;;;;;;;8.57;48.11;103121.97;6073092;29;20222;-71
2021/04/17 07:34:16;;;;;;;1.58;1.10;;;;;;;8.52;47.24;103124.28;6071789;29;20191;-71
2021/04/17 07:37:20;;;;;;;2.13;1.30;;;;;;;8.56;47.50;103125.69;6072879;29;20194;-72
2021/04/17 07:40:25;;;;;;;1.38;1.38;;;;;;;8.71;47.97;103118.75;6072580;29;20206;-72
2021/04/17 07:43:44;;;;;;;4.80;1.10;;;;;;;8.77;47.65;103129.03;6072760;29;20233;-73
2021/04/17 07:46:48;;;;;;;1.40;1.30;;;;;;;8.85;47.28;103120.13;6071542;29;20529;-72
2021/04/17 07:50:02;;;;;;;1.15;1.15;;;;;;;8.86;46.41;103131.88;6073019;29;20222;-72
2021/04/17 07:53:23;;;;;;;;;;;;;;;8.90;46.32;103138.72;6072497;29;20072;-72
2021/04/17 07:56:28;;;;;;;;;;;;;;;8.91;46.83;103137.72;6072184;29;19962;-71
2021/04/17 07:59:31;;;;;;;;;;;;;;;8.89;46.34;103132.41;6073348;29;19923;-71
2021/04/17 08:02:35;;;;;;;1.20;1.20;;;;;;;8.83;44.96;103144.75;6071514;29;20423;-73
2021/04/17 08:05:39;;;;;;;0.98;0.98;;;;;;;8.83;44.96;103143.94;6072088;29;20277;-71
2021/04/17 08:08:44;;;;;;;1.08;1.08;;;;;;;8.77;44.26;103139.94;6071903;29;20190;-71
2021/04/17 08:11:50;;;;;;;1.00;1.00;;;;;;;8.83;45.03;103150.19;6072179;29;20257;-71
2021/04/17 08:14:54;;;;;;;1.13;1.13;;;;;;;8.74;44.09;103150.25;6072146;29;20198;-71
2021/04/17 08:17:58;;;;;;;0.90;0.90;;;;;;;8.73;44.92;103154.84;6071951;29;20257;-73
2021/04/17 08:21:02;;;;;;;1.10;1.10;;;;;;;8.72;44.68;103158.56;6071078;29;20529;-72
2021/04/17 08:24:09;;;;;;;1.65;1.15;;;;;;;8.71;44.12;103156.84;6071301;29;20190;-71
2021/04/17 08:27:12;;;;;;;3.28;1.30;;;;;;;8.85;44.87;103157.38;6071065;29;20221;-71
2021/04/17 08:30:21;;;;;;;1.50;1.40;;;;;;;8.84;43.90;103151.06;6071976;29;20257;-71
2021/04/17 08:33:24;;;;;;;1.45;1.35;;;;;;;8.97;44.44;103150.72;6071655;29;20222;-72
2021/04/17 08:36:31;;;;;;;1.20;1.20;;;;;;;8.94;45.47;103156.47;6071687;29;20194;-72
2021/04/17 08:39:42;;;;;;;1.30;1.30;;;;;;;8.89;44.63;103164.22;6070997;29;20210;-73
2021/04/17 08:42:49;;;;;;;1.38;1.35;;;;;;;8.90;45.32;103160.50;6071623;29;20242;-73
2021/04/17 08:46:08;;;;;;;1.35;1.15;;;;;;;9.00;44.70;103161.31;6071386;29;20218;-72
2021/04/17 08:49:20;;;;;;;1.45;1.30;;;;;;;8.99;45.53;103173.25;6071722;29;20191;-72
2021/04/17 08:52:23;;;;;;;1.30;1.30;;;;;;;9.04;45.33;103168.19;6070160;29;20190;-75
2021/04/17 08:55:28;;;;;;;;;;;;;;;9.03;46.03;103177.34;6070718;29;20278;-71
2021/04/17 08:58:31;;;;;;;;;;;;;;;9.07;44.92;103167.88;6072223;29;19919;-72
2021/04/17 09:01:38;;;;;;;;;;;;;;;9.14;44.51;103179.91;6072035;29;19923;-72
2021/04/17 09:04:56;;;;;;;;;;;;;;;9.28;45.35;103172.06;6071829;29;19920;-72
2021/04/17 09:08:11;;;;;;;2.60;1.60;;;;;;;9.28;44.68;103176.66;6071519;29;20231;-73
2021/04/17 09:11:36;;;;;;;2.65;1.65;;;;;;;9.29;44.89;103186.56;6070158;29;20319;-73
2021/04/17 09:15:00;;;;;;;1.25;1.25;;;;;;;9.27;44.12;103166.78;6070120;29;20501;-72
2021/04/17 09:18:04;;;;;;;1.42;1.38;;;;;;;9.36;44.70;103182.19;6070658;29;20194;-72
2021/04/17 09:21:32;;;;;;;4.57;1.38;;;;;;;9.27;44.36;103191.31;6071138;29;20231;-71
2021/04/17 09:24:42;;;;;;;1.40;1.40;;;;;;;9.21;45.16;103170.09;6070827;29;20202;-72
2021/04/17 09:27:51;;;;;;;3.38;1.40;;;;;;;9.24;44.42;103177.97;6053247;29;20430;-72
2021/04/17 09:30:54;;;;;;;1.27;1.27;;;;;;;9.37;44.42;103175.75;6071025;29;20101;-72
2021/04/17 09:33:58;;;;;;;1.35;1.35;;;;;;;9.44;43.91;103171.41;6071075;29;20126;-72
2021/04/17 09:37:09;;;;;;;2.92;1.40;;;;;;;9.37;45.02;103181.19;6069877;29;20477;-72
2021/04/17 09:40:13;;;;;;;1.35;1.33;;;;;;;9.22;44.55;103153.59;6070820;29;20247;-75
2021/04/17 09:43:27;;;;;;;1.55;1.30;;;;;;;9.21;44.72;103176.41;6069976;29;20242;-71
2021/04/17 09:46:30;;;;;;;1.30;1.25;;;;;;;9.29;44.46;103189.28;6069637;29;20218;-72
2021/04/17 09:49:40;;;;;;;1.38;1.35;;;;;;;9.18;44.67;103193.06;6070087;29;20191;-72
2021/04/17 09:52:45;;;;;;;1.25;1.25;;;;;;;9.22;44.36;103188.13;6074387;29;20194;-72
2021/04/17 09:55:55;;;;;;;1.58;1.48;;;;;;;9.22;43.71;103189.00;6075712;29;20198;-72
2021/04/17 09:59:06;;;;;;;1.60;1.50;;;;;;;9.20;44.54;103184.72;6074276;29;20190;-72
2021/04/17 10:02:10;;;;;;;1.60;1.50;;;;;;;9.30;43.68;103174.63;6074094;29;20482;-71
2021/04/17 10:05:15;;;;;;;1.40;1.40;;;;;;;9.13;43.72;103178.16;6074977;29;20222;-73
2021/04/17 10:08:31;;;;;;;1.67;1.58;;;;;;;9.26;43.64;103175.94;6075255;29;20236;-72
2021/04/17 10:11:36;;;;;;;2.63;1.48;;;;;;;9.28;43.21;103182.09;6075150;29;20274;-72
2021/04/17 10:14:40;;;;;;;1.98;1.55;;;;;;;9.26;43.61;103184.13;6073926;29;20266;-71
2021/04/17 10:17:44;;;;;;;2.65;1.80;;;;;;;9.11;43.39;103177.47;6075067;29;20238;-72
2021/04/17 10:20:47;;;;;;;1.70;1.60;;;;;;;9.28;43.31;103169.34;6074872;29;20222;-72
2021/04/17 10:24:23;;;;;;;2.25;1.50;;;;;;;9.32;43.59;103161.72;6075094;29;20190;-72
2021/04/17 10:27:33;;;;;;;1.40;1.40;;;;;;;9.40;43.56;103169.97;6073969;29;20266;-72
2021/04/17 10:30:39;;;;;;;1.40;1.40;;;;;;;9.44;43.86;103165.94;6073563;29;20486;-71
2021/04/17 10:33:44;;;;;;;1.05;1.05;;;;;;;9.36;43.29;103160.41;6073547;29;20407;-71
2021/04/17 10:36:55;;;;;;;1.75;1.20;;;;;;;9.53;42.60;103159.56;6073212;29;20478;-72
2021/04/17 10:40:01;;;;;;;3.38;1.50;;;;;;;9.55;42.79;103149.38;6073164;29;20441;-73
2021/04/17 10:43:05;;;;;;;1.17;1.17;;;;;;;9.71;41.51;103163.16;6074159;29;20242;-71
2021/04/17 10:46:14;;;;;;;2.70;1.60;;;;;;;9.81;41.88;103153.03;6074393;29;20270;-72
2021/04/17 10:49:33;;;;;;;;;;;;;;;9.84;40.62;103158.19;6074187;29;20108;-73
2021/04/17 10:52:36;;;;;;;7.15;1.95;;;;;;;9.90;40.26;103156.69;6073069;29;19919;-71
2021/04/17 10:55:42;;;;;;;3.03;1.67;;;;;;;10.05;39.52;103158.72;6073971;29;20190;-72
2021/04/17 10:58:48;;;;;;;3.50;1.20;;;;;;;10.12;39.54;103155.38;6073913;29;20186;-72
2021/04/17 11:01:52;;;;;;;1.55;1.50;;;;;;;10.14;39.28;103153.38;6056947;29;20242;-72
2021/04/17 11:04:56;;;;;;;1.30;1.30;;;;;;;10.23;39.02;103141.47;6072833;29;20422;-73
2021/04/17 11:08:02;;;;;;;2.15;1.70;;;;;;;10.25;40.04;103139.44;6073629;29;20225;-73
2021/04/17 11:11:08;;;;;;;4.43;1.27;;;;;;;10.27;38.80;103153.81;6073101;29;20191;-73
2021/04/17 11:14:11;;;;;;;;;;;;;;;10.36;39.77;103150.09;6074281;29;20125;-71
2021/04/17 11:17:16;;;;;;;7.05;1.65;;;;;;;10.41;37.60;103145.03;6073730;29;19920;-72
2021/04/17 11:20:21;;;;;;;1.73;1.63;;;;;;;10.49;37.81;103156.88;6056105;29;20241;-71
2021/04/17 11:23:40;;;;;;;;;;;;;;;10.53;37.72;103149.19;6073444;29;20196;-71
2021/04/17 11:26:43;;;;;;;1.85;1.75;;;;;;;10.52;38.15;103161.16;6072879;29;20235;-71
2021/04/17 11:29:46;;;;;;;;;;;;;;;10.48;38.96;103162.47;6073933;29;20229;-72
2021/04/17 11:32:50;;;;;;;3.50;2.25;;;;;;;10.58;37.26;103152.28;6072185;29;20123;-72
2021/04/17 11:35:54;;;;;;;1.60;1.50;;;;;;;10.56;37.33;103148.88;6072983;29;20190;-72
2021/04/17 11:38:58;;;;;;;1.30;1.30;;;;;;;10.64;36.97;103159.84;6072686;29;20201;-71
2021/04/17 11:42:01;;;;;;;1.08;1.08;;;;;;;10.71;37.04;103157.34;6073010;29;20254;-71
2021/04/17 11:45:05;;;;;;;1.30;1.30;;;;;;;10.65;37.59;103153.38;6072238;29;20473;-72
2021/04/17 11:48:12;;;;;;;2.05;1.42;;;;;;;10.72;38.14;103153.56;6071814;29;20576;-71
2021/04/17 11:51:17;;;;;;;1.20;1.20;;;;;;;10.61;37.48;103151.97;6071692;29;20191;-73
2021/04/17 11:54:20;;;;;;;;;;;;;;;10.71;37.15;103174.56;6072929;29;20208;-73
2021/04/17 11:57:23;;;;;;;;;;;;;;;10.73;36.74;103156.16;6073244;29;19996;-71
2021/04/17 12:00:26;;;;;;;;;;;;;;;10.80;37.05;103168.16;6055268;29;19919;-71
2021/04/17 12:03:30;;;;;;;3.10;1.40;;;;;;;10.84;36.79;103163.19;6072463;29;20279;-73
2021/04/17 12:06:33;;;;;;;1.40;1.30;;;;;;;10.84;36.91;103174.97;6071826;29;20190;-71
2021/04/17 12:09:36;;;;;;;;;;;;;;;10.83;37.18;103166.97;6056247;29;20048;-72
2021/04/17 12:12:39;;;;;;;;;;;;;;;10.80;37.29;103165.41;6072556;29;19967;-71
2021/04/17 12:15:43;;;;;;;;;;;;;;;10.92;36.99;103155.91;6072105;29;20015;-72
2021/04/17 12:18:46;;;;;;;1.17;1.17;;;;;;;10.96;36.71;103156.44;6072160;29;20038;-72
2021/04/17 12:21:49;;;;;;;;;;;;;;;11.02;36.64;103151.16;6071397;29;20477;-72
2021/04/17 12:24:52;;;;;;;;;;;;;;;11.01;37.10;103160.41;6072450;29;20243;-72
2021/04/17 12:27:55;;;;;;;;;;;;;;;11.04;36.41;103154.59;6071170;29;20206;-71
2021/04/17 12:30:58;;;;;;;;;;;;;;;11.19;35.99;103154.84;6071407;29;20177;-71
2021/04/17 12:34:02;;;;;;;;;;;;;;;11.22;35.91;103147.16;6072044;29;19927;-72
2021/04/17 12:37:08;;;;;;;1.52;1.42;;;;;;;11.19;34.98;103152.09;6071654;29;20025;-72
2021/04/17 12:40:13;;;;;;;4.15;1.60;;;;;;;11.22;34.84;103141.69;6070446;29;20216;-72
2021/04/17 12:43:17;;;;;;;1.10;1.10;;;;;;;11.27;34.42;103155.69;6071781;29;20245;-72
2021/04/17 12:46:20;;;;;;;1.45;1.45;;;;;;;11.29;33.88;103142.75;6071757;29;20258;-73
2021/04/17 12:49:24;;;;;;;1.42;1.33;;;;;;;11.37;35.27;103154.72;6070377;29;20463;-71
2021/04/17 12:52:27;;;;;;;2.08;1.40;;;;;;;11.44;34.35;103142.09;6071769;29;20190;-71
2021/04/17 12:55:30;;;;;;;1.60;1.27;;;;;;;11.46;34.23;103137.31;6070454;29;20190;-73
2021/04/17 12:58:38;;;;;;;5.63;1.35;;;;;;;11.56;34.25;103144.34;6054755;29;20289;-73
2021/04/17 13:01:41;;;;;;;2.50;1.50;;;;;;;11.55;34.38;103141.78;6070813;29;20239;-73
2021/04/17 13:04:45;;;;;;;2.67;1.25;;;;;;;11.61;35.30;103141.09;6070365;29;20254;-71
2021/04/17 13:07:48;;;;;;;1.60;1.48;;;;;;;11.65;33.90;103147.97;6070181;29;20550;-72
2021/04/17 13:10:51;;;;;;;1.77;1.33;;;;;;;11.75;33.48;103143.22;6070487;29;20197;-71
2021/04/17 13:13:54;;;;;;;1.75;1.20;;;;;;;11.78;33.68;103145.63;6069890;29;20480;-71
2021/04/17 13:16:58;;;;;;;1.08;1.05;;;;;;;11.71;33.51;103141.84;6069991;29;20496;-72
2021/04/17 13:20:03;;;;;;;3.47;1.30;;;;;;;11.83;33.59;103151.44;6069871;29;20231;-72
2021/04/17 13:23:06;;;;;;;1.63;1.30;;;;;;;11.86;33.72;103151.09;6070768;29;20266;-71
2021/04/17 13:26:10;;;;;;;1.85;1.40;;;;;;;11.99;33.77;103139.66;6069748;29;20190;-71
2021/04/17 13:29:13;;;;;;;1.30;1.30;;;;;;;12.03;33.40;103130.91;6070266;29;20277;-71
2021/04/17 13:32:16;;;;;;;2.60;1.30;;;;;;;12.07;33.83;103129.53;6069755;29;20380;-72
2021/04/17 13:35:21;;;;;;;1.48;1.48;;;;;;;12.03;33.20;103130.91;6069527;29;20464;-72
2021/04/17 13:38:24;;;;;;;1.45;1.35;;;;;;;12.05;33.42;103128.84;6070516;29;20234;-71
2021/04/17 13:41:27;;;;;;;1.23;1.23;;;;;;;12.12;33.31;103129.88;6070633;29;20206;-72
2021/04/17 13:44:30;;;;;;;1.95;1.30;;;;;;;12.11;33.33;103122.72;6070239;29;20308;-72
2021/04/17 13:47:34;;;;;;;12.80;5.28;;;;;;;12.10;33.01;103115.50;6070776;29;20221;-72
2021/04/17 13:50:38;;;;;;;9.15;5.07;;;;;;;12.20;32.98;103112.59;6070329;29;20234;-72
2021/04/17 13:53:42;;;;;;;1.83;1.83;;;;;;;12.18;33.14;103112.78;6070730;29;20190;-72
2021/04/17 13:56:45;;;;;;;1.33;1.30;;;;;;;12.24;32.80;103112.09;6070547;29;20291;-71
2021/04/17 13:59:48;;;;;;;1.92;1.75;;;;;;;12.20;32.71;103088.81;6071807;29;20198;-71
2021/04/17 14:02:51;;;;;;;1.77;1.67;;;;;;;12.46;32.75;103111.34;6070589;29;20302;-70
2021/04/17 14:05:55;;;;;;;2.50;1.50;;;;;;;12.41;32.37;103108.28;6069455;29;20190;-71
2021/04/17 14:08:58;;;;;;;2.03;1.70;;;;;;;12.33;33.24;103100.09;6070014;29;20253;-72
2021/04/17 14:12:02;;;;;;;1.67;1.52;;;;;;;12.26;31.76;103088.13;6069462;29;20214;-72
2021/04/17 14:15:08;;;;;;;3.80;1.95;;;;;;;12.31;32.24;103113.09;6070217;29;20197;-72
2021/04/17 14:18:14;;;;;;;1.58;1.33;;;;;;;12.42;32.41;103109.16;6069772;29;20198;-72
2021/04/17 14:21:33;;;;;;;1.67;1.67;;;;;;;12.39;31.83;103099.41;6069323;29;20191;-71
2021/04/17 14:24:37;;;;;;;3.75;1.45;;;;;;;12.42;31.83;103104.53;6070098;29;20400;-71
2021/04/17 14:27:40;;;;;;;2.08;1.40;;;;;;;12.56;31.00;103095.59;6070070;29;20300;-71
2021/04/17 14:30:43;;;;;;;1.67;1.50;;;;;;;12.45;30.67;103104.16;6070386;29;20297;-71
2021/04/17 14:33:46;;;;;;;1.58;1.33;;;;;;;12.46;30.94;103094.94;6070160;29;20231;-72
2021/04/17 14:36:50;;;;;;;2.42;1.63;;;;;;;12.42;31.02;103104.53;6071373;29;20481;-72